Camaqua, Brazil
Current Conditions -  °F | °C
As of 2:00 PM on Thursday 18 Dec 2014 (Local Time) from SBPK Reporting Station
Broken Clouds Broken Clouds  
Wind Chill: 81°   Ceiling: 3500
Heat Index: 82°   Visibility: 6mi
Dew Point: 63°   Wind: 9mph
Humidity: 54%   Direction: 220°SW
Pressure: 29.85"   Gusts: NA
Location:  30.85°S, 51.81°W
Report Text: SBPK 181600Z 22008KT 9999 BKN035 27/17 Q1011
Loading
Personal Weather Stations






























Interactive Weather Map New forecast layout! Learn more

10-Day Weather Forecast

Advertisements
Track Severe Weather on mobile